createdAt,value
2023-02-08T00:02:09.596Z,0.95
2023-02-08T00:07:11.695Z,0.98
2023-02-08T00:12:13.553Z,1.30
2023-02-08T00:17:15.335Z,0.95
2023-02-08T00:22:17.338Z,1.25
2023-02-08T00:27:19.496Z,1.00
2023-02-08T00:32:21.693Z,0.75
2023-02-08T00:37:23.573Z,0.60
2023-02-08T00:42:27.085Z,0.82
2023-02-08T00:47:29.244Z,1.00
2023-02-08T00:52:31.670Z,0.88
2023-02-08T00:57:34.608Z,1.25
2023-02-08T01:02:38.493Z,0.75
2023-02-08T01:07:40.798Z,1.10
2023-02-08T01:12:42.818Z,0.95
2023-02-08T01:17:45.124Z,1.02
2023-02-08T01:22:47.468Z,0.85
2023-02-08T01:27:49.539Z,0.90
2023-02-08T01:32:51.683Z,0.93
2023-02-08T01:37:53.458Z,1.20
2023-02-08T01:42:55.628Z,0.77
2023-02-08T01:48:05.142Z,0.68
2023-02-08T01:53:07.104Z,0.93
2023-02-08T01:58:12.402Z,0.98
2023-02-08T02:03:15.042Z,1.00
2023-02-08T02:08:16.973Z,0.95
2023-02-08T02:13:21.817Z,1.17
2023-02-08T02:18:32.176Z,0.65
2023-02-08T02:23:52.456Z,0.95
2023-02-08T02:29:56.453Z,0.80
2023-02-08T02:35:01.161Z,0.90
2023-02-08T02:40:27.632Z,0.80
2023-02-08T02:45:40.564Z,0.95
2023-02-08T02:50:48.501Z,0.75
2023-02-08T02:55:57.268Z,0.60
2023-02-08T03:00:59.999Z,0.90
2023-02-08T03:06:10.733Z,0.88
2023-02-08T03:11:26.860Z,0.90
2023-02-08T03:16:37.813Z,0.88
2023-02-08T03:22:05.883Z,0.80
2023-02-08T03:27:23.138Z,1.08
2023-02-08T03:32:51.172Z,0.85
2023-02-08T03:38:01.295Z,0.98
2023-02-08T03:43:10.633Z,1.05
2023-02-08T03:48:16.208Z,0.82
2023-02-08T03:53:21.950Z,0.70
2023-02-08T03:58:30.550Z,0.70
2023-02-08T04:03:34.304Z,0.95
2023-02-08T04:08:36.546Z,0.90
2023-02-08T04:13:38.665Z,0.50
2023-02-08T04:18:40.622Z,0.90
2023-02-08T04:23:42.549Z,0.85
2023-02-08T04:28:44.576Z,0.98
2023-02-08T04:33:46.373Z,1.05
2023-02-08T04:38:48.540Z,0.80
2023-02-08T04:43:50.565Z,0.95
2023-02-08T04:48:52.536Z,1.20
2023-02-08T04:53:54.351Z,0.90
2023-02-08T04:58:56.199Z,0.80
2023-02-08T05:03:58.160Z,1.35
2023-02-08T05:08:59.988Z,0.80
2023-02-08T05:14:02.200Z,0.90
2023-02-08T05:19:04.082Z,0.93
2023-02-08T05:24:07.378Z,0.90
2023-02-08T05:29:09.487Z,0.85
2023-02-08T05:34:12.482Z,0.77
2023-02-08T05:39:14.427Z,1.00
2023-02-08T05:44:16.226Z,1.05
2023-02-08T05:49:18.033Z,1.02
2023-02-08T05:54:19.955Z,1.23
2023-02-08T05:59:21.871Z,0.80
2023-02-08T06:04:23.985Z,0.88
2023-02-08T06:09:25.862Z,1.20
2023-02-08T06:14:27.771Z,1.02
2023-02-08T06:19:29.602Z,0.88
2023-02-08T06:24:31.500Z,1.23
2023-02-08T06:29:33.413Z,0.85
2023-02-08T06:34:35.504Z,0.95
2023-02-08T06:39:37.529Z,0.80
2023-02-08T06:44:51.371Z,0.63
2023-02-08T06:49:56.379Z,1.08
2023-02-08T06:54:58.498Z,0.93
2023-02-08T07:00:00.550Z,0.80
2023-02-08T07:05:02.726Z,1.00
2023-02-08T07:10:05.239Z,0.80
2023-02-08T07:15:07.553Z,1.00
2023-02-08T07:20:11.852Z,0.90
2023-02-08T07:25:13.881Z,1.13
2023-02-08T07:30:15.750Z,1.20
2023-02-08T07:35:17.670Z,1.08
2023-02-08T07:40:19.590Z,1.17
2023-02-08T07:45:21.608Z,1.10
2023-02-08T07:50:23.527Z,1.02
2023-02-08T07:55:25.579Z,1.30
2023-02-08T08:00:27.651Z,1.27
2023-02-08T08:05:29.735Z,1.77
2023-02-08T08:10:31.727Z,0.88
2023-02-08T08:15:33.589Z,1.77
2023-02-08T08:20:35.561Z,1.95
2023-02-08T08:25:38.019Z,1.42
2023-02-08T08:30:43.992Z,1.58
2023-02-08T08:35:47.547Z,1.70
2023-02-08T08:40:49.831Z,1.25
2023-02-08T08:45:53.054Z,1.25
2023-02-08T08:50:55.605Z,1.38
2023-02-08T08:55:57.671Z,1.55
2023-02-08T09:01:00.580Z,2.42
2023-02-08T09:06:02.692Z,2.30
2023-02-08T09:11:08.770Z,1.60
2023-02-08T09:16:18.065Z,2.15
2023-02-08T09:21:22.513Z,1.55
2023-02-08T09:26:26.739Z,1.92
2023-02-08T09:31:31.402Z,1.45
2023-02-08T09:36:39.356Z,1.60
2023-02-08T09:41:43.120Z,1.48
2023-02-08T09:47:29.156Z,1.60
2023-02-08T09:52:50.369Z,1.70
2023-02-08T09:57:55.840Z,1.25
2023-02-08T10:03:00.484Z,1.88
2023-02-08T10:08:03.922Z,1.83
2023-02-08T10:13:40.408Z,1.60
2023-02-08T10:18:52.236Z,1.20
2023-02-08T10:24:00.231Z,1.13
2023-02-08T10:29:05.038Z,1.00
2023-02-08T10:34:31.881Z,1.67
2023-02-08T10:39:35.851Z,1.20
2023-02-08T10:44:50.067Z,1.20
2023-02-08T10:49:59.233Z,1.50
2023-02-08T10:55:01.593Z,1.52
2023-02-08T11:00:27.355Z,1.13
2023-02-08T11:05:36.583Z,1.38
2023-02-08T11:10:40.584Z,1.27
2023-02-08T11:15:49.942Z,1.25
2023-02-08T11:20:55.439Z,1.30
2023-02-08T11:26:16.322Z,1.38
2023-02-08T11:31:21.186Z,0.95
2023-02-08T11:36:23.266Z,1.30
2023-02-08T11:41:25.398Z,1.00
2023-02-08T11:46:29.761Z,1.17
2023-02-08T11:51:34.962Z,0.90
2023-02-08T11:56:37.024Z,1.42
2023-02-08T12:01:41.456Z,1.17
2023-02-08T12:07:18.519Z,1.20
2023-02-08T12:12:36.884Z,1.00
2023-02-08T12:17:50.761Z,1.10
2023-02-08T12:23:04.339Z,1.00
2023-02-08T12:28:43.680Z,0.80
2023-02-08T12:33:50.984Z,1.25
2023-02-08T12:39:23.999Z,1.02
2023-02-08T12:45:16.041Z,1.02
2023-02-08T12:50:31.804Z,0.85
2023-02-08T12:55:41.941Z,1.17
2023-02-08T13:00:47.014Z,0.70
2023-02-08T13:06:01.625Z,0.98
2023-02-08T13:11:19.854Z,0.90
2023-02-08T13:16:26.640Z,0.90
2023-02-08T13:21:38.425Z,0.80
2023-02-08T13:26:41.137Z,1.30
2023-02-08T13:31:46.725Z,1.00
2023-02-08T13:36:59.931Z,1.02
2023-02-08T13:42:04.851Z,0.90
2023-02-08T13:47:08.081Z,0.70
2023-02-08T13:52:12.181Z,0.68
2023-02-08T13:57:53.504Z,1.10
2023-02-08T14:03:19.813Z,0.57
2023-02-08T14:08:29.975Z,0.75
2023-02-08T14:13:38.017Z,0.60
2023-02-08T14:18:40.569Z,0.75
2023-02-08T14:23:42.657Z,0.75
2023-02-08T14:28:47.010Z,0.80
2023-02-08T14:33:56.773Z,0.90
2023-02-08T14:39:24.742Z,0.57
2023-02-08T14:44:39.311Z,1.00
2023-02-08T14:49:46.009Z,0.47
2023-02-08T14:54:59.706Z,1.20
2023-02-08T15:00:09.068Z,0.80
2023-02-08T15:05:22.639Z,0.90
2023-02-08T15:10:26.677Z,0.85
2023-02-08T15:15:41.914Z,0.70
2023-02-08T15:20:44.991Z,0.68
2023-02-08T15:26:21.114Z,1.08
2023-02-08T15:31:33.622Z,0.70
2023-02-08T15:36:38.736Z,0.65
2023-02-08T15:41:40.734Z,0.73
2023-02-08T15:46:44.191Z,0.77
2023-02-08T15:51:46.966Z,0.77
2023-02-08T15:57:00.185Z,0.80
2023-02-08T16:02:19.200Z,0.80
2023-02-08T16:07:48.749Z,0.80
2023-02-08T16:12:53.771Z,0.70
2023-02-08T16:17:55.594Z,0.80
2023-02-08T16:23:01.221Z,1.08
2023-02-08T16:28:06.573Z,0.60
2023-02-08T16:33:09.169Z,0.70
2023-02-08T16:38:18.368Z,0.60
2023-02-08T16:43:26.321Z,0.60
2023-02-08T16:48:35.178Z,0.60
2023-02-08T16:53:42.389Z,0.75
2023-02-08T16:58:45.023Z,0.60
2023-02-08T17:03:46.929Z,0.60
2023-02-08T17:08:49.472Z,0.52
2023-02-08T17:13:52.787Z,0.52
2023-02-08T17:18:54.728Z,0.68
2023-02-08T17:23:56.819Z,0.60
2023-02-08T17:28:59.391Z,0.93
2023-02-08T17:34:04.814Z,0.55
2023-02-08T17:39:06.652Z,0.40
2023-02-08T17:44:08.688Z,0.70
2023-02-08T17:49:10.666Z,0.70
2023-02-08T17:54:12.641Z,0.60
2023-02-08T17:59:14.785Z,0.77
2023-02-08T18:04:16.608Z,0.73
2023-02-08T18:09:18.552Z,0.60
2023-02-08T18:14:20.817Z,0.60
2023-02-08T18:19:22.983Z,0.55
2023-02-08T18:24:24.871Z,0.70
2023-02-08T18:29:27.015Z,0.75
2023-02-08T18:34:28.950Z,0.70
2023-02-08T18:39:31.222Z,0.77
2023-02-08T18:44:35.633Z,0.47
2023-02-08T18:49:41.034Z,0.80
2023-02-08T18:54:42.965Z,0.80
2023-02-08T18:59:44.753Z,0.40
2023-02-08T19:04:47.020Z,0.73
2023-02-08T19:09:49.731Z,0.60
2023-02-08T19:14:51.668Z,0.40
2023-02-08T19:19:53.848Z,0.90
2023-02-08T19:24:55.813Z,0.93
2023-02-08T19:29:57.657Z,0.63
2023-02-08T19:34:59.550Z,0.80
2023-02-08T19:40:01.471Z,1.15
2023-02-08T19:45:03.733Z,0.77
2023-02-08T19:50:05.909Z,0.68
2023-02-08T19:55:07.980Z,0.77
2023-02-08T20:00:22.532Z,0.80
2023-02-08T20:05:25.578Z,1.10
2023-02-08T20:10:27.454Z,1.48
2023-02-08T20:15:29.379Z,1.10
2023-02-08T20:20:31.705Z,1.17
2023-02-08T20:25:34.121Z,0.98
2023-02-08T20:30:36.043Z,1.25
2023-02-08T20:35:38.072Z,1.20
2023-02-08T20:40:40.055Z,1.17
2023-02-08T20:45:42.576Z,1.20
2023-02-08T20:50:44.973Z,0.80
2023-02-08T20:55:47.256Z,1.48
2023-02-08T21:00:49.330Z,1.00
2023-02-08T21:05:51.431Z,0.90
2023-02-08T21:10:53.282Z,0.98
2023-02-08T21:15:55.438Z,0.90
2023-02-08T21:20:58.422Z,0.98
2023-02-08T21:26:01.180Z,1.65
2023-02-08T21:31:06.642Z,1.00
2023-02-08T21:36:12.385Z,1.23
2023-02-08T21:41:23.140Z,1.30
2023-02-08T21:46:26.039Z,0.93
2023-02-08T21:51:46.630Z,1.25
2023-02-08T21:56:48.717Z,0.95
2023-02-08T22:01:50.784Z,0.90
2023-02-08T22:06:52.844Z,0.85
2023-02-08T22:11:56.734Z,1.27
2023-02-08T22:16:58.782Z,0.90
2023-02-08T22:22:00.592Z,0.85
2023-02-08T22:27:02.966Z,1.25
2023-02-08T22:32:06.026Z,0.88
2023-02-08T22:37:07.907Z,1.00
2023-02-08T22:42:13.730Z,0.70
2023-02-08T22:47:15.775Z,0.88
2023-02-08T22:52:18.229Z,1.02
2023-02-08T22:57:20.368Z,0.70
2023-02-08T23:02:23.727Z,0.80
2023-02-08T23:07:25.970Z,0.75
2023-02-08T23:12:28.095Z,0.80
2023-02-08T23:17:30.092Z,0.65
2023-02-08T23:22:32.151Z,0.73
2023-02-08T23:27:34.407Z,0.80
2023-02-08T23:32:36.630Z,0.82
2023-02-08T23:37:38.909Z,0.80
2023-02-08T23:42:40.946Z,0.88
2023-02-08T23:47:42.952Z,0.82
2023-02-08T23:52:44.929Z,0.90
2023-02-08T23:57:46.895Z,0.75
